METAR Data
IDs: Format: Raw Decoded Include TAF

Data at: 1334 UTC 14 Dec 2019

KSLG 141256Z AUTO 35006KT 8SM CLR 01/M01 A2986 RMK AO2 SLP115 T00061006 FZRANO TSNO
KSLG 141156Z AUTO 31005KT 10SM CLR 02/00 A2986 RMK AO2 SLP114 7//// T00170000 10067 20017 53018 FZRANO TSNO
KSLG 141056Z AUTO 32008KT 10SM CLR 03/01 A2983 RMK AO2 SLP102 T00330011 TSNO
KSLG 140956Z AUTO 32009KT 10SM CLR 05/02 A2981 RMK AO2 SLP095 T00500022 TSNO
KSLG 140856Z AUTO 27006KT 10SM CLR 05/03 A2980 RMK AO2 SLP092 T00500033 TSNO
KSLG 140756Z AUTO 25004KT 10SM FEW060 BKN110 07/04 A2979 RMK AO2 SLP087 T00670044 TSNO
KSLG 140656Z AUTO 25006KT 10SM OVC110 06/04 RMK AO2 SLPNO T00560039 TSNO $
KSLG 140556Z AUTO 22005KT 10SM FEW120 04/02 A2981 RMK AO2 SLP095 6//// T00440022 10094 20044 401330039 58017 TSNO
KSLG 140456Z AUTO 22004KT 10SM CLR 05/03 A2983 RMK AO2 SLP103 T00500033 TSNO
KSLG 140356Z AUTO 20004KT 10SM FEW110 06/03 A2984 RMK AO2 SLP108 T00560033 TSNO
KSLG 140256Z AUTO 21003KT 10SM CLR 06/03 A2986 RMK AO2 SLP115 6//// T00560028 51010 TSNO
KSLG 140156Z AUTO 24003KT 10SM CLR 07/03 A2985 RMK AO2 SLP112 T00670028 TSNO
KSLG 140056Z AUTO 00000KT 10SM CLR 08/03 A2985 RMK AO2 SLP110 T00780028 TSNO
KSLG 132356Z AUTO 19004KT 10SM CLR 09/03 A2983 RMK AO2 SLP102 6//// T00940028 10133 20094 53000 TSNO
KSLG 132256Z AUTO 00000KT 10SM CLR 11/03 A2982 RMK AO2 SLP100 T01060033 TSNO
KSLG 132156Z AUTO 19003KT 10SM CLR 13/03 A2982 RMK AO2 SLP098 T01280033 TSNO
KSLG 132056Z AUTO VRB03KT 10SM CLR 13/03 A2982 RMK AO2 SLP100 6//// T01280033 56017 TSNO
KSLG 131956Z AUTO 28003KT 10SM CLR 12/03 A2983 RMK AO2 SLP103 T01170028 TSNO
KSLG 131856Z AUTO 20003KT 10SM CLR 12/03 A2986 RMK AO2 SLP112 T01170028 TSNO
KSLG 131756Z AUTO 18007KT 10SM SCT100 10/03 A2988 RMK AO2 SLP118 T01000028 10106 20039 58023 TSNO
KSLG 131556Z AUTO 15004KT 10SM BKN044 08/01 A2995 RMK AO2 SLP145 T00830006 TSNO
KSLG 131456Z AUTO 00000KT 10SM OVC044 06/M01 A2995 RMK AO2 SLP144 T00561006 56002 TSNO
KSLG 131356Z AUTO 00000KT 10SM BKN046 04/M01 A2995 RMK AO2 SLP145 T00391011 TSNO
KSLG 131256Z AUTO 00000KT 10SM CLR 04/M01 A2995 RMK AO2 SLP145 T00391006 TSNO
KSLG 131156Z AUTO 00000KT 10SM BKN046 OVC110 04/M01 A2995 RMK AO2 SLP146 7//// T00441011 10061 20044 56011 TSNO
KSLG 131056Z AUTO 15003KT 10SM BKN046 BKN110 04/M02 A2996 RMK AO2 SLP148 T00441017 TSNO
KSLG 130956Z AUTO 00000KT 10SM CLR 04/M02 A2997 RMK AO2 SLP151 T00441017 TSNO
KSLG 130856Z AUTO 19004KT 10SM FEW120 05/M02 A2999 RMK AO2 SLP155 T00501017 56021 TSNO
KSLG 130756Z AUTO 00000KT 10SM CLR 05/M02 A3001 RMK AO2 SLP163 T00501022 TSNO
KSLG 130656Z AUTO 17005KT 10SM FEW110 06/M02 A3001 RMK AO2 SLP165 T00561022 TSNO
KSLG 130556Z AUTO 18003KT 10SM OVC046 06/M02 A3005 RMK AO2 SLP177 T00611022 10078 20044 401220033 58008 TSNO
KSLG 130456Z AUTO 16006KT 10SM OVC044 06/M03 A3007 RMK AO2 SLP186 T00611028 TSNO
KSLG 130356Z AUTO 19005KT 10SM CLR 04/M03 A3008 RMK AO2 SLP190 T00441033 TSNO
KSLG 130256Z AUTO 17006KT 10SM BKN060 06/M03 A3007 RMK AO2 SLP188 T00611033 58002 TSNO
KSLG 130156Z AUTO 18004KT 10SM CLR 06/M04 A3008 RMK AO2 SLP192 T00611044 TSNO